Time;durP1;ratioP1;P1;durP2;ratioP2;P2;SDS_P1;SDS_P2;PMS_P1;PMS_P2;Temp;Humidity;BMP_temperature;BMP_pressure;BME280_temperature;BME280_humidity;BME280_pressure;Samples;Min_cycle;Max_cycle;Signal;HPM_P1;HPM_P2
2021/04/01 00:04:50;;;;;;;27.50;13.83;;;;;;;;;;10362703;28;20232;-80
2021/04/01 00:09:52;;;;;;;24.20;12.63;;;;;;;;;;10361265;28;20692;-79
2021/04/01 00:14:54;;;;;;;25.80;13.30;;;;;;;;;;10362364;28;20228;-79
2021/04/01 00:19:56;;;;;;;26.77;13.80;;;;;;;;;;10364619;28;20240;-79
2021/04/01 00:24:59;;;;;;;26.40;13.47;;;;;;;;;;10371733;28;20228;-78
2021/04/01 00:30:01;;;;;;;27.33;14.33;;;;;;;;;;10361956;28;20227;-80
2021/04/01 00:35:03;;;;;;;26.73;13.90;;;;;;;;;;10360058;28;20219;-81
2021/04/01 00:40:09;;;;;;;24.17;13.00;;;;;;;;;;10368883;28;20886;-81
2021/04/01 00:45:11;;;;;;;27.33;13.70;;;;;;;;;;10363390;28;20231;-79
2021/04/01 00:50:14;;;;;;;26.10;13.67;;;;;;;;;;10362683;28;20217;-80
2021/04/01 00:55:17;;;;;;;27.50;13.37;;;;;;;;;;10367320;28;20673;-80
2021/04/01 01:00:22;;;;;;;28.47;13.97;;;;;;;;;;10360878;28;20610;-80
2021/04/01 01:05:24;;;;;;;25.33;13.03;;;;;;;;;;10363266;28;20250;-79
2021/04/01 01:10:28;;;;;;;28.83;13.10;;;;;;;;;;10366037;28;20220;-79
2021/04/01 01:15:31;;;;;;;30.07;14.30;;;;;;;;;;10357923;28;20220;-79
2021/04/01 01:20:33;;;;;;;28.90;14.00;;;;;;;;;;10360066;28;20247;-79
2021/04/01 01:25:54;;;;;;;31.87;15.87;;;;;;;;;;10358041;28;20223;-79
2021/04/01 01:30:55;;;;;;;34.53;16.30;;;;;;;;;;10358548;28;20263;-79
2021/04/01 01:35:57;;;;;;;36.67;16.87;;;;;;;;;;10357142;28;20599;-78
2021/04/01 01:41:00;;;;;;;34.60;16.03;;;;;;;;;;10362587;28;20599;-78
2021/04/01 01:46:02;;;;;;;43.27;17.20;;;;;;;;;;10355981;28;20208;-79
2021/04/01 01:51:04;;;;;;;38.90;17.57;;;;;;;;;;10363883;28;20235;-79
2021/04/01 01:56:07;;;;;;;37.97;17.77;;;;;;;;;;10356642;28;20236;-79
2021/04/01 02:01:09;;;;;;;44.93;19.33;;;;;;;;;;10371416;28;20223;-79
2021/04/01 02:06:11;;;;;;;41.40;18.83;;;;;;;;;;10365408;28;20236;-78
2021/04/01 02:11:14;;;;;;;46.83;19.23;;;;;;;;;;10363913;28;20701;-79
2021/04/01 02:16:16;;;;;;;44.47;19.83;;;;;;;;;;10355800;28;21584;-79
2021/04/01 02:21:18;;;;;;;46.70;19.00;;;;;;;;;;10358207;28;20212;-78
2021/04/01 02:26:21;;;;;;;43.83;19.67;;;;;;;;;;10360269;28;20216;-79
2021/04/01 02:31:23;;;;;;;46.27;20.37;;;;;;;;;;10358908;28;20212;-79
2021/04/01 02:36:25;;;;;;;48.20;19.63;;;;;;;;;;10359672;28;20244;-79
2021/04/01 02:41:27;;;;;;;45.67;20.80;;;;;;;;;;10347389;28;20802;-79
2021/04/01 02:46:29;;;;;;;48.97;21.93;;;;;;;;;;10360933;28;20212;-80
2021/04/01 02:51:31;;;;;;;48.37;20.40;;;;;;;;;;10361340;28;20670;-77
2021/04/01 02:56:34;;;;;;;44.60;20.20;;;;;;;;;;10359657;28;20232;-78
2021/04/01 03:01:36;;;;;;;45.90;18.90;;;;;;;;;;10354532;28;20220;-78
2021/04/01 03:06:38;;;;;;;46.47;20.70;;;;;;;;;;10360929;28;20427;-79
2021/04/01 03:11:41;;;;;;;45.70;20.80;;;;;;;;;;10355291;28;20225;-79
2021/04/01 03:16:42;;;;;;;44.07;20.73;;;;;;;;;;10361628;28;20236;-79
2021/04/01 03:21:45;;;;;;;50.63;22.10;;;;;;;;;;10360736;28;20255;-79
2021/04/01 03:26:48;;;;;;;54.23;22.47;;;;;;;;;;10367671;28;20219;-79
2021/04/01 03:31:50;;;;;;;49.90;21.57;;;;;;;;;;10364306;28;20216;-79
2021/04/01 03:36:52;;;;;;;57.17;23.50;;;;;;;;;;10369637;28;20244;-79
2021/04/01 03:41:55;;;;;;;62.73;24.53;;;;;;;;;;10364439;28;20696;-79
2021/04/01 03:46:56;;;;;;;57.00;22.17;;;;;;;;;;10367492;28;20220;-79
2021/04/01 03:51:58;;;;;;;53.83;23.13;;;;;;;;;;10370145;28;20220;-78
2021/04/01 03:57:02;;;;;;;55.73;23.90;;;;;;;;;;10360263;28;20244;-78
2021/04/01 04:02:17;;;;;;;53.03;22.73;;;;;;;;;;10367356;28;20678;-82
2021/04/01 04:12:48;;;;;;;52.50;21.80;;;;;;;;;;10366936;28;20223;-85
2021/04/01 04:17:50;;;;;;;43.07;21.10;;;;;;;;;;10361287;28;20270;-78
2021/04/01 04:22:52;;;;;;;49.47;21.53;;;;;;;;;;10365159;28;20215;-79
2021/04/01 04:28:09;;;;;;;50.40;21.87;;;;;;;;;;10366698;28;20224;-81
2021/04/01 04:33:11;;;;;;;55.83;22.10;;;;;;;;;;10361278;28;20216;-84
2021/04/01 04:38:13;;;;;;;53.07;21.17;;;;;;;;;;10374315;28;20236;-85
2021/04/01 04:43:15;;;;;;;59.47;23.77;;;;;;;;;;10366055;28;20216;-88
2021/04/01 04:48:17;;;;;;;58.07;22.10;;;;;;;;;;10366129;28;20215;-85
2021/04/01 04:53:20;;;;;;;63.17;23.10;;;;;;;;;;10363847;28;20212;-81
2021/04/01 04:58:26;;;;;;;57.63;22.20;;;;;;;;;;10364898;28;20686;-83
2021/04/01 05:08:49;;;;;;;62.37;23.27;;;;;;;;;;10375219;28;20227;-83
2021/04/01 05:13:52;;;;;;;62.83;24.33;;;;;;;;;;10365454;28;20223;-83
2021/04/01 05:18:56;;;;;;;72.10;26.73;;;;;;;;;;10369572;28;20240;-83
2021/04/01 05:24:00;;;;;;;71.83;26.27;;;;;;;;;;10369188;28;20693;-82
2021/04/01 05:29:04;;;;;;;70.07;26.77;;;;;;;;;;10373829;28;20873;-83
2021/04/01 05:34:07;;;;;;;77.70;29.87;;;;;;;;;;10371702;28;20231;-83
2021/04/01 05:39:12;;;;;;;89.57;33.57;;;;;;;;;;10358447;28;20242;-83
2021/04/01 05:44:19;;;;;;;88.47;35.50;;;;;;;;;;10369567;28;20220;-85
2021/04/01 05:49:40;;;;;;;85.57;36.23;;;;;;;;;;10364994;28;20227;-83
2021/04/01 06:00:32;;;;;;;92.63;42.20;;;;;;;;;;10367204;28;20240;-84
2021/04/01 06:05:38;;;;;;;93.67;40.73;;;;;;;;;;10366642;28;20242;-82
2021/04/01 06:10:40;;;;;;;87.53;40.00;;;;;;;;;;10367093;28;20217;-82
2021/04/01 06:15:46;;;;;;;89.53;42.03;;;;;;;;;;10359902;28;20212;-83
2021/04/01 06:20:48;;;;;;;98.63;42.87;;;;;;;;;;10363325;28;20728;-82
2021/04/01 06:25:53;;;;;;;96.37;44.93;;;;;;;;;;10363993;28;20222;-82
2021/04/01 06:30:58;;;;;;;94.50;44.93;;;;;;;;;;10365242;28;20963;-84
2021/04/01 06:36:01;;;;;;;100.97;45.67;;;;;;;;;;10363666;28;20216;-82
2021/04/01 06:41:05;;;;;;;95.83;46.27;;;;;;;;;;10369033;28;20323;-83
2021/04/01 06:46:08;;;;;;;100.67;49.13;;;;;;;;;;10362578;28;20704;-84
2021/04/01 06:51:12;;;;;;;100.80;48.10;;;;;;;;;;10365634;28;20246;-82
2021/04/01 06:56:18;;;;;;;104.83;51.07;;;;;;;;;;10357969;28;20316;-83
2021/04/01 07:01:49;;;;;;;101.43;48.87;;;;;;;;;;10368256;28;20216;-83
2021/04/01 07:07:02;;;;;;;107.37;53.17;;;;;;;;;;10368075;28;20248;-83
2021/04/01 07:12:15;;;;;;;105.17;54.23;;;;;;;;;;10368620;28;20224;-84
2021/04/01 07:17:24;;;;;;;109.97;55.67;;;;;;;;;;10372768;28;20329;-83
2021/04/01 07:23:05;;;;;;;100.47;53.03;;;;;;;;;;10362514;28;20692;-84
2021/04/01 07:49:45;;;;;;;99.87;52.80;;;;;;;;;;10380864;28;20216;-84
2021/04/01 07:55:06;;;;;;;103.50;52.47;;;;;;;;;;10376658;28;20216;-83
2021/04/01 08:00:14;;;;;;;100.27;51.13;;;;;;;;;;10374318;28;20631;-83
2021/04/01 08:05:23;;;;;;;94.90;49.53;;;;;;;;;;10371091;28;21728;-82
2021/04/01 08:10:32;;;;;;;92.00;48.93;;;;;;;;;;10378385;28;20216;-83
2021/04/01 08:15:36;;;;;;;96.80;47.90;;;;;;;;;;10368419;28;20704;-83
2021/04/01 08:20:41;;;;;;;92.70;46.30;;;;;;;;;;10369566;28;20247;-84
2021/04/01 08:25:54;;;;;;;90.13;45.17;;;;;;;;;;10373681;28;20224;-84
2021/04/01 08:37:09;;;;;;;71.30;36.40;;;;;;;;;;10365679;28;20224;-83
2021/04/01 08:42:42;;;;;;;69.00;36.10;;;;;;;;;;10369923;28;20223;-83
2021/04/01 08:48:13;;;;;;;71.20;34.97;;;;;;;;;;10371296;28;20659;-83
2021/04/01 08:53:32;;;;;;;65.13;31.67;;;;;;;;;;10370361;28;20311;-84
2021/04/01 08:58:40;;;;;;;59.30;28.37;;;;;;;;;;10366009;28;20323;-83
2021/04/01 09:03:43;;;;;;;51.23;24.03;;;;;;;;;;10368640;28;20228;-83
2021/04/01 09:08:47;;;;;;;45.23;21.00;;;;;;;;;;10371529;28;20212;-83
2021/04/01 09:13:55;;;;;;;35.87;18.43;;;;;;;;;;10361224;28;20217;-82
2021/04/01 09:19:16;;;;;;;33.43;15.83;;;;;;;;;;10371856;28;20759;-82
2021/04/01 09:24:18;;;;;;;30.40;13.10;;;;;;;;;;10367438;28;20231;-83
2021/04/01 09:29:22;;;;;;;26.47;11.03;;;;;;;;;;10368641;28;20564;-83
2021/04/01 09:34:25;;;;;;;15.17;6.47;;;;;;;;;;10366765;28;20408;-83
2021/04/01 09:39:31;;;;;;;16.07;7.00;;;;;;;;;;10347957;28;20848;-83
2021/04/01 09:44:34;;;;;;;14.87;5.67;;;;;;;;;;10356254;28;20212;-83
2021/04/01 09:49:39;;;;;;;15.17;5.33;;;;;;;;;;10367151;28;20216;-83
2021/04/01 09:54:45;;;;;;;17.90;4.93;;;;;;;;;;10368034;28;20216;-85
2021/04/01 09:59:50;;;;;;;14.40;4.03;;;;;;;;;;10360811;28;20239;-82
2021/04/01 10:04:55;;;;;;;9.83;3.23;;;;;;;;;;10369679;28;20231;-85
2021/04/01 10:09:58;;;;;;;9.87;3.07;;;;;;;;;;10366249;28;20224;-83
2021/04/01 10:15:02;;;;;;;9.60;2.80;;;;;;;;;;10358098;28;20239;-84
2021/04/01 10:20:05;;;;;;;12.17;3.00;;;;;;;;;;10363614;28;20228;-83
2021/04/01 10:25:12;;;;;;;9.77;2.87;;;;;;;;;;10369646;28;20342;-82
2021/04/01 10:30:16;;;;;;;14.93;3.47;;;;;;;;;;10371263;28;20228;-83
2021/04/01 10:35:22;;;;;;;7.93;2.60;;;;;;;;;;10366927;28;20231;-83
2021/04/01 10:40:24;;;;;;;16.47;3.07;;;;;;;;;;10378738;28;20248;-83
2021/04/01 10:45:32;;;;;;;16.47;3.47;;;;;;;;;;10369573;28;20212;-82
2021/04/01 10:50:34;;;;;;;15.23;3.27;;;;;;;;;;10365203;28;20212;-82
2021/04/01 10:55:37;;;;;;;13.03;3.00;;;;;;;;;;10373827;28;20710;-82
2021/04/01 11:00:40;;;;;;;10.57;2.70;;;;;;;;;;10372045;28;20613;-83
2021/04/01 11:05:42;;;;;;;12.63;3.10;;;;;;;;;;10372223;28;20242;-82
2021/04/01 11:10:45;;;;;;;16.67;3.47;;;;;;;;;;10364406;28;20208;-84
2021/04/01 11:15:50;;;;;;;16.63;3.03;;;;;;;;;;10367292;28;20669;-82
2021/04/01 11:20:52;;;;;;;14.37;3.30;;;;;;;;;;10371046;28;20632;-83
2021/04/01 11:25:55;;;;;;;11.37;3.17;;;;;;;;;;10375041;28;20235;-82
2021/04/01 11:30:58;;;;;;;16.57;3.40;;;;;;;;;;10369252;28;20876;-82
2021/04/01 11:36:09;;;;;;;9.60;2.53;;;;;;;;;;10373178;28;20228;-82
2021/04/01 11:41:12;;;;;;;10.93;3.20;;;;;;;;;;10363592;28;20636;-83
2021/04/01 11:46:19;;;;;;;9.80;2.70;;;;;;;;;;10369719;28;20833;-83
2021/04/01 11:51:22;;;;;;;16.20;3.07;;;;;;;;;;10363710;28;20224;-81
2021/04/01 11:56:33;;;;;;;12.40;2.47;;;;;;;;;;10361642;28;20315;-84
2021/04/01 12:01:47;;;;;;;8.30;2.30;;;;;;;;;;10365119;28;20336;-83
2021/04/01 12:06:49;;;;;;;12.10;2.50;;;;;;;;;;10366206;28;20232;-83
2021/04/01 12:11:51;;;;;;;6.63;2.37;;;;;;;;;;10359936;28;20322;-83
2021/04/01 12:17:00;;;;;;;10.37;2.53;;;;;;;;;;10365442;28;20220;-82
2021/04/01 12:22:07;;;;;;;12.43;2.93;;;;;;;;;;10370945;28;20235;-82
2021/04/01 12:27:09;;;;;;;7.90;2.40;;;;;;;;;;10363720;28;20208;-82
2021/04/01 12:32:11;;;;;;;8.50;2.23;;;;;;;;;;10364699;28;20216;-83
2021/04/01 12:37:15;;;;;;;9.43;2.50;;;;;;;;;;10365391;28;20227;-82
2021/04/01 12:42:17;;;;;;;8.43;2.30;;;;;;;;;;10367329;28;20779;-82
2021/04/01 12:47:22;;;;;;;9.40;2.53;;;;;;;;;;10367790;28;20212;-83
2021/04/01 12:52:25;;;;;;;13.13;2.70;;;;;;;;;;10364497;28;20215;-84
2021/04/01 12:57:27;;;;;;;13.47;3.67;;;;;;;;;;10363460;28;20232;-84
2021/04/01 13:02:50;;;;;;;8.77;2.57;;;;;;;;;;10367146;28;20224;-83
2021/04/01 13:08:04;;;;;;;12.47;3.33;;;;;;;;;;10370783;28;20216;-84
2021/04/01 13:13:06;;;;;;;8.07;2.40;;;;;;;;;;10364502;28;20224;-84
2021/04/01 13:18:10;;;;;;;16.27;3.07;;;;;;;;;;10364586;28;20274;-83
2021/04/01 13:23:25;;;;;;;13.50;3.00;;;;;;;;;;10366133;28;20284;-83
2021/04/01 13:28:27;;;;;;;12.60;3.00;;;;;;;;;;10365369;28;20217;-83
2021/04/01 13:33:42;;;;;;;12.50;3.30;;;;;;;;;;10362505;28;20228;-85
2021/04/01 13:38:44;;;;;;;14.60;2.87;;;;;;;;;;10366759;28;20228;-82
2021/04/01 13:43:46;;;;;;;17.10;3.60;;;;;;;;;;10351172;28;20228;-82
2021/04/01 13:48:51;;;;;;;17.70;4.00;;;;;;;;;;10368698;28;20305;-82
2021/04/01 13:54:02;;;;;;;21.17;4.27;;;;;;;;;;10364113;28;20221;-82
2021/04/01 14:09:47;;;;;;;17.73;3.80;;;;;;;;;;10324780;28;20262;-83
2021/04/01 14:14:49;;;;;;;17.23;3.37;;;;;;;;;;10362083;28;20208;-83
2021/04/01 14:19:53;;;;;;;18.70;3.60;;;;;;;;;;10364583;28;20315;-82
2021/04/01 14:25:03;;;;;;;13.70;3.20;;;;;;;;;;10368788;28;20679;-84
2021/04/01 14:30:06;;;;;;;14.13;3.13;;;;;;;;;;10365402;28;20220;-83
2021/04/01 14:35:13;;;;;;;13.43;3.20;;;;;;;;;;10364692;28;20220;-83
2021/04/01 14:40:15;;;;;;;16.93;4.30;;;;;;;;;;10360958;28;20810;-83
2021/04/01 14:45:17;;;;;;;20.17;3.63;;;;;;;;;;10369014;28;20323;-83
2021/04/01 14:50:20;;;;;;;19.10;3.20;;;;;;;;;;10364337;28;20228;-83
2021/04/01 14:55:22;;;;;;;13.50;3.23;;;;;;;;;;10379292;28;20412;-83
2021/04/01 15:00:25;;;;;;;14.90;3.03;;;;;;;;;;10407511;28;20256;-82
2021/04/01 15:05:28;;;;;;;14.03;3.13;;;;;;;;;;10410852;28;20300;-81
2021/04/01 15:10:30;;;;;;;13.87;3.17;;;;;;;;;;10369017;28;20687;-84
2021/04/01 15:15:32;;;;;;;19.80;3.73;;;;;;;;;;10362847;28;20569;-84
2021/04/01 15:20:52;;;;;;;17.00;3.53;;;;;;;;;;10360121;28;20737;-82
2021/04/01 15:25:54;;;;;;;13.17;3.50;;;;;;;;;;10356430;28;20568;-82
2021/04/01 15:30:56;;;;;;;13.80;3.20;;;;;;;;;;10356008;28;20216;-81
2021/04/01 15:35:59;;;;;;;20.70;3.50;;;;;;;;;;10360548;28;20228;-83
2021/04/01 15:41:01;;;;;;;15.47;3.27;;;;;;;;;;10368095;28;20236;-83
2021/04/01 15:46:03;;;;;;;18.43;3.77;;;;;;;;;;10359463;28;20619;-82
2021/04/01 15:51:07;;;;;;;17.23;3.47;;;;;;;;;;10364879;28;20213;-83
2021/04/01 15:56:09;;;;;;;20.57;3.83;;;;;;;;;;10362344;28;20216;-82
2021/04/01 16:01:11;;;;;;;16.60;3.70;;;;;;;;;;10373310;28;20237;-85
2021/04/01 16:06:13;;;;;;;15.77;3.20;;;;;;;;;;10369736;28;20510;-88
2021/04/01 16:11:15;;;;;;;13.73;3.50;;;;;;;;;;10363322;28;20215;-81
2021/04/01 16:16:18;;;;;;;13.97;3.40;;;;;;;;;;10358654;28;20208;-87
2021/04/01 16:21:21;;;;;;;20.20;3.17;;;;;;;;;;10361848;28;20682;-87
2021/04/01 16:26:27;;;;;;;18.77;3.57;;;;;;;;;;10360328;28;20220;-86
2021/04/01 16:31:32;;;;;;;15.97;3.63;;;;;;;;;;10362615;28;20223;-82
2021/04/01 16:36:35;;;;;;;10.47;2.97;;;;;;;;;;10364373;28;20219;-87
2021/04/01 16:41:38;;;;;;;15.40;3.47;;;;;;;;;;10356435;28;20236;-81
2021/04/01 16:46:44;;;;;;;16.27;3.63;;;;;;;;;;10369266;28;20224;-86
2021/04/01 16:51:49;;;;;;;10.80;2.93;;;;;;;;;;10366538;28;20666;-83
2021/04/01 16:56:52;;;;;;;15.00;3.60;;;;;;;;;;10359704;28;20351;-86
2021/04/01 17:01:54;;;;;;;8.70;3.00;;;;;;;;;;10358060;28;20244;-83
2021/04/01 17:06:56;;;;;;;14.43;3.37;;;;;;;;;;10355853;28;20407;-84
2021/04/01 17:11:58;;;;;;;11.97;3.00;;;;;;;;;;10346507;28;20216;-84
2021/04/01 17:17:00;;;;;;;9.87;3.23;;;;;;;;;;10355294;28;20231;-84
2021/04/01 17:22:04;;;;;;;14.07;3.67;;;;;;;;;;10351488;28;20229;-83
2021/04/01 17:27:08;;;;;;;11.33;3.30;;;;;;;;;;10358751;28;20221;-84
2021/04/01 17:32:10;;;;;;;11.80;3.10;;;;;;;;;;10354298;28;20449;-84
2021/04/01 17:37:13;;;;;;;12.53;3.13;;;;;;;;;;10352180;28;20243;-85
2021/04/01 17:42:14;;;;;;;10.40;2.60;;;;;;;;;;10358559;28;20296;-83
2021/04/01 17:47:16;;;;;;;6.53;2.57;;;;;;;;;;10351444;28;20591;-84
2021/04/01 17:52:19;;;;;;;9.50;2.80;;;;;;;;;;10354898;28;20591;-84
2021/04/01 17:57:22;;;;;;;9.00;2.73;;;;;;;;;;10345156;28;20216;-85
2021/04/01 18:02:25;;;;;;;9.03;3.03;;;;;;;;;;10350232;28;20239;-84
2021/04/01 18:28:53;;;;;;;7.70;2.40;;;;;;;;;;10342549;28;20227;-82
2021/04/01 18:33:58;;;;;;;8.47;3.30;;;;;;;;;;10351561;28;20224;-82
2021/04/01 18:39:08;;;;;;;11.50;2.80;;;;;;;;;;10347412;28;20250;-82
2021/04/01 18:44:10;;;;;;;7.53;2.50;;;;;;;;;;10349676;28;20677;-83
2021/04/01 18:49:20;;;;;;;7.57;2.93;;;;;;;;;;10340512;28;20220;-83
2021/04/01 18:54:25;;;;;;;5.33;2.10;;;;;;;;;;10340406;28;20594;-81
2021/04/01 18:59:29;;;;;;;7.97;2.40;;;;;;;;;;10352754;28;20244;-83
2021/04/01 19:04:33;;;;;;;6.03;2.10;;;;;;;;;;10357391;28;20614;-83
2021/04/01 19:09:44;;;;;;;7.30;2.40;;;;;;;;;;10357109;28;20651;-83
2021/04/01 19:25:33;;;;;;;7.67;2.30;;;;;;;;;;10350842;28;20217;-84
2021/04/01 19:30:36;;;;;;;8.50;2.33;;;;;;;;;;10363606;28;20216;-89
2021/04/01 19:35:38;;;;;;;6.23;2.40;;;;;;;;;;10355077;28;20231;-83
2021/04/01 19:40:41;;;;;;;8.37;2.70;;;;;;;;;;10349694;28;20258;-81
2021/04/01 19:45:44;;;;;;;7.67;2.47;;;;;;;;;;10352422;28;20702;-83
2021/04/01 19:50:46;;;;;;;10.77;2.90;;;;;;;;;;10353394;28;20212;-83
2021/04/01 19:55:49;;;;;;;8.17;2.60;;;;;;;;;;10361695;28;20535;-83
2021/04/01 20:00:51;;;;;;;7.17;2.47;;;;;;;;;;10355696;28;20253;-84
2021/04/01 20:05:54;;;;;;;7.77;2.30;;;;;;;;;;10355539;28;20709;-84
2021/04/01 20:10:57;;;;;;;10.30;2.73;;;;;;;;;;10351879;28;20311;-84
2021/04/01 20:15:59;;;;;;;6.10;2.37;;;;;;;;;;10348712;28;20222;-84
2021/04/01 20:21:01;;;;;;;9.43;2.60;;;;;;;;;;10356668;28;20275;-81
2021/04/01 20:26:04;;;;;;;8.10;2.63;;;;;;;;;;10357476;28;20638;-83
2021/04/01 20:31:07;;;;;;;9.53;2.50;;;;;;;;;;10352256;28;20244;-81
2021/04/01 20:36:09;;;;;;;8.47;2.53;;;;;;;;;;10355311;28;20223;-82
2021/04/01 20:41:12;;;;;;;9.03;2.53;;;;;;;;;;10352406;28;20239;-82
2021/04/01 20:46:13;;;;;;;7.27;2.50;;;;;;;;;;10357941;28;20579;-81
2021/04/01 20:51:15;;;;;;;9.80;2.77;;;;;;;;;;10356888;28;20229;-81
2021/04/01 20:56:18;;;;;;;8.57;2.43;;;;;;;;;;10354979;28;20225;-81
2021/04/01 21:01:20;;;;;;;6.83;2.57;;;;;;;;;;10363015;28;20244;-81
2021/04/01 21:06:21;;;;;;;7.97;2.50;;;;;;;;;;10358059;28;20592;-81
2021/04/01 21:11:25;;;;;;;7.33;2.43;;;;;;;;;;10358784;28;20216;-82
2021/04/01 21:16:26;;;;;;;8.73;2.47;;;;;;;;;;10352345;28;20677;-82
2021/04/01 21:21:28;;;;;;;7.20;2.50;;;;;;;;;;10359663;28;20250;-82
2021/04/01 21:26:31;;;;;;;6.80;2.30;;;;;;;;;;10350275;28;20394;-82
2021/04/01 21:31:34;;;;;;;8.33;2.63;;;;;;;;;;10363945;28;20214;-81
2021/04/01 23:49:49;;;;;;;8.43;2.50;;;;;;;;;;10437490;28;20242;-82
2021/04/01 23:54:51;;;;;;;8.77;2.30;;;;;;;;;;10440049;28;20216;-82
2021/04/01 23:59:53;;;;;;;7.50;2.57;;;;;;;;;;10442026;28;20787;-82
